createdAt,value
2018-08-12T00:03:53.984Z,1.60
2018-08-12T00:08:46.574Z,1.43
2018-08-12T00:13:39.514Z,1.70
2018-08-12T00:18:32.183Z,1.60
2018-08-12T00:23:24.912Z,1.63
2018-08-12T00:28:17.597Z,1.40
2018-08-12T00:33:10.167Z,1.50
2018-08-12T00:38:02.761Z,1.63
2018-08-12T00:42:55.439Z,1.40
2018-08-12T00:47:48.530Z,1.73
2018-08-12T00:52:41.220Z,1.50
2018-08-12T00:57:33.823Z,1.50
2018-08-12T01:02:26.427Z,1.40
2018-08-12T01:07:18.977Z,1.67
2018-08-12T01:12:11.523Z,1.40
2018-08-12T01:17:04.390Z,1.37
2018-08-12T01:21:56.982Z,1.60
2018-08-12T01:26:49.605Z,1.23
2018-08-12T01:31:42.168Z,1.40
2018-08-12T01:36:34.752Z,1.90
2018-08-12T01:41:27.464Z,1.80
2018-08-12T01:46:20.075Z,1.40
2018-08-12T01:51:12.675Z,1.30
2018-08-12T01:56:05.254Z,1.50
2018-08-12T02:00:57.832Z,1.57
2018-08-12T02:05:50.532Z,1.50
2018-08-12T02:10:43.289Z,1.70
2018-08-12T02:15:35.893Z,1.60
2018-08-12T02:20:28.538Z,1.60
2018-08-12T02:25:21.105Z,1.80
2018-08-12T02:30:13.690Z,1.43
2018-08-12T02:35:06.581Z,1.73
2018-08-12T02:39:59.130Z,1.70
2018-08-12T02:44:51.727Z,1.60
2018-08-12T02:49:44.369Z,1.90
2018-08-12T02:54:36.936Z,1.90
2018-08-12T02:59:29.506Z,1.80
2018-08-12T03:04:22.070Z,1.90
2018-08-12T03:09:14.718Z,1.80
2018-08-12T03:14:08.065Z,2.03
2018-08-12T03:19:00.631Z,2.00
2018-08-12T03:23:53.194Z,2.13
2018-08-12T03:28:45.727Z,2.30
2018-08-12T03:33:38.331Z,2.10
2018-08-12T03:38:30.889Z,1.93
2018-08-12T03:43:23.590Z,2.03
2018-08-12T03:48:16.203Z,2.03
2018-08-12T03:53:08.765Z,2.00
2018-08-12T03:58:01.310Z,2.00
2018-08-12T04:02:53.874Z,2.20
2018-08-12T04:07:46.516Z,1.80
2018-08-12T04:12:39.417Z,2.13
2018-08-12T04:17:31.962Z,1.70
2018-08-12T04:22:24.645Z,2.20
2018-08-12T04:27:17.225Z,1.90
2018-08-12T04:32:09.792Z,1.97
2018-08-12T04:37:02.408Z,2.00
2018-08-12T04:41:55.005Z,1.77
2018-08-12T04:46:47.557Z,2.00
2018-08-12T04:51:40.163Z,1.83
2018-08-12T04:56:32.734Z,2.00
2018-08-12T05:01:25.354Z,1.90
2018-08-12T05:06:18.010Z,1.60
2018-08-12T05:11:10.954Z,2.00
2018-08-12T05:16:03.547Z,2.10
2018-08-12T05:20:56.238Z,2.10
2018-08-12T05:25:48.842Z,1.90
2018-08-12T05:30:41.397Z,2.10
2018-08-12T05:35:34.066Z,1.77
2018-08-12T05:40:26.741Z,1.90
2018-08-12T05:45:19.396Z,1.87
2018-08-12T05:50:11.975Z,1.97
2018-08-12T05:55:05.330Z,2.00
2018-08-12T05:59:58.014Z,1.77
2018-08-12T06:04:50.575Z,1.80
2018-08-12T06:09:43.406Z,1.83
2018-08-12T06:14:36.044Z,1.87
2018-08-12T06:19:28.883Z,1.73
2018-08-12T06:24:21.538Z,2.10
2018-08-12T06:29:14.259Z,1.63
2018-08-12T06:34:06.851Z,1.60
2018-08-12T06:38:59.895Z,1.43
2018-08-12T06:43:52.530Z,2.00
2018-08-12T06:48:45.139Z,1.70
2018-08-12T06:53:37.775Z,1.50
2018-08-12T06:58:30.434Z,1.70
2018-08-12T07:03:23.169Z,1.57
2018-08-12T07:08:15.786Z,1.37
2018-08-12T07:13:08.457Z,1.30
2018-08-12T07:18:01.280Z,1.60
2018-08-12T07:22:53.872Z,1.60
2018-08-12T07:27:46.489Z,1.30
2018-08-12T07:32:39.405Z,1.50
2018-08-12T07:37:32.100Z,1.30
2018-08-12T07:42:24.698Z,1.23
2018-08-12T07:47:17.309Z,1.63
2018-08-12T07:52:09.988Z,1.87
2018-08-12T07:57:02.615Z,1.37
2018-08-12T08:01:55.367Z,1.40
2018-08-12T08:06:48.159Z,1.33
2018-08-12T08:11:42.754Z,1.43
2018-08-12T08:16:35.550Z,1.30
2018-08-12T08:21:28.319Z,1.60
2018-08-12T08:26:21.217Z,1.70
2018-08-12T08:31:13.929Z,1.40
2018-08-12T08:36:06.582Z,1.60
2018-08-12T08:40:59.277Z,1.43
2018-08-12T08:45:52.212Z,1.67
2018-08-12T08:50:44.939Z,1.53
2018-08-12T08:55:37.643Z,1.73
2018-08-12T09:00:30.237Z,1.80
2018-08-12T09:05:22.954Z,1.93
2018-08-12T09:10:16.690Z,1.80
2018-08-12T09:15:12.319Z,3.00
2018-08-12T09:20:07.457Z,3.00
2018-08-12T09:25:00.071Z,3.07
2018-08-12T09:29:52.802Z,2.80
2018-08-12T09:34:45.492Z,2.10
2018-08-12T09:39:38.111Z,2.60
2018-08-12T09:44:30.737Z,2.20
2018-08-12T09:49:23.390Z,2.70
2018-08-12T09:54:16.076Z,1.87
2018-08-12T09:59:08.652Z,1.80
2018-08-12T10:04:01.305Z,1.97
2018-08-12T10:08:54.091Z,1.87
2018-08-12T10:13:46.757Z,1.90
2018-08-12T10:18:39.480Z,1.93
2018-08-12T10:23:32.138Z,2.23
2018-08-12T10:28:25.041Z,2.00
2018-08-12T10:33:17.808Z,1.77
2018-08-12T10:38:10.460Z,2.40
2018-08-12T10:43:03.332Z,1.90
2018-08-12T10:47:55.966Z,1.73
2018-08-12T10:52:49.309Z,1.70
2018-08-12T10:57:42.086Z,1.87
2018-08-12T11:02:34.748Z,1.70
2018-08-12T11:07:27.413Z,1.83
2018-08-12T11:12:20.350Z,1.60
2018-08-12T11:17:13.036Z,1.80
2018-08-12T11:22:05.729Z,1.67
2018-08-12T11:26:58.342Z,1.83
2018-08-12T11:31:50.997Z,1.77
2018-08-12T11:36:43.617Z,1.67
2018-08-12T11:41:36.238Z,1.80
2018-08-12T11:46:28.969Z,1.80
2018-08-12T11:51:21.866Z,1.70
2018-08-12T11:56:14.903Z,1.83
2018-08-12T12:01:07.599Z,1.57
2018-08-12T12:06:00.295Z,1.47
2018-08-12T12:10:52.898Z,2.00
2018-08-12T12:15:45.564Z,1.80
2018-08-12T12:20:38.189Z,1.50
2018-08-12T12:25:30.945Z,1.57
2018-08-12T12:30:23.644Z,1.60
2018-08-12T12:35:16.289Z,1.50
2018-08-12T12:40:11.667Z,1.60
2018-08-12T12:45:06.474Z,1.60
2018-08-12T12:49:59.249Z,1.50
2018-08-12T12:54:51.976Z,1.60
2018-08-12T12:59:44.803Z,1.47
2018-08-12T13:04:37.468Z,1.70
2018-08-12T13:09:30.264Z,1.60
2018-08-12T13:14:23.051Z,1.60
2018-08-12T13:19:16.197Z,1.47
2018-08-12T13:24:08.802Z,1.60
2018-08-12T13:29:01.790Z,1.50
2018-08-12T13:33:54.428Z,1.63
2018-08-12T13:38:47.058Z,1.90
2018-08-12T13:43:40.145Z,1.60
2018-08-12T13:48:32.721Z,1.90
2018-08-12T13:53:25.585Z,1.70
2018-08-12T13:58:18.304Z,1.70
2018-08-12T14:03:10.914Z,1.50
2018-08-12T14:08:03.751Z,1.40
2018-08-12T14:12:56.378Z,1.63
2018-08-12T14:17:49.785Z,2.00
2018-08-12T14:22:42.492Z,1.90
2018-08-12T14:27:35.146Z,1.50
2018-08-12T14:32:27.864Z,1.70
2018-08-12T14:37:20.498Z,1.60
2018-08-12T14:42:13.322Z,1.80
2018-08-12T14:47:06.072Z,1.60
2018-08-12T14:51:58.709Z,1.50
2018-08-12T14:56:51.628Z,1.70
2018-08-12T15:01:44.254Z,1.50
2018-08-12T15:06:37.114Z,1.70
2018-08-12T15:11:29.677Z,1.50
2018-08-12T15:16:22.405Z,1.60
2018-08-12T15:21:14.938Z,1.40
2018-08-12T15:26:08.038Z,1.60
2018-08-12T15:31:00.757Z,1.90
2018-08-12T15:35:53.428Z,2.60
2018-08-12T15:40:46.111Z,1.53
2018-08-12T15:45:38.792Z,1.60
2018-08-12T15:50:31.428Z,1.47
2018-08-12T15:55:24.011Z,1.93
2018-08-12T16:00:19.196Z,1.57
2018-08-12T16:05:11.842Z,1.60
2018-08-12T16:10:22.759Z,1.50
2018-08-12T16:15:15.565Z,1.50
2018-08-12T16:20:09.392Z,1.60
2018-08-12T16:25:02.075Z,1.73
2018-08-12T16:29:54.989Z,1.63
2018-08-12T16:34:47.653Z,1.70
2018-08-12T16:39:40.237Z,1.60
2018-08-12T16:44:32.847Z,1.53
2018-08-12T16:49:25.630Z,1.80
2018-08-12T16:54:18.361Z,1.60
2018-08-12T16:59:10.998Z,1.50
2018-08-12T17:04:03.610Z,1.77
2018-08-12T17:08:56.268Z,1.43
2018-08-12T17:13:48.907Z,1.50
2018-08-12T17:18:41.633Z,1.50
2018-08-12T17:23:34.338Z,1.60
2018-08-12T17:28:26.929Z,2.20
2018-08-12T17:33:19.482Z,1.90
2018-08-12T17:38:12.096Z,1.70
2018-08-12T17:43:04.817Z,1.60
2018-08-12T17:47:57.483Z,2.00
2018-08-12T17:52:53.471Z,1.70
2018-08-12T17:57:49.686Z,2.10
2018-08-12T18:02:46.210Z,3.00
2018-08-12T18:07:39.899Z,2.40
2018-08-12T18:12:32.470Z,3.03
2018-08-12T18:17:25.011Z,3.27
2018-08-12T18:22:17.653Z,3.50
2018-08-12T18:27:10.388Z,4.33
2018-08-12T18:32:02.918Z,3.67
2018-08-12T18:36:55.469Z,2.90
2018-08-12T18:41:48.267Z,3.03
2018-08-12T18:46:40.884Z,3.40
2018-08-12T18:51:33.757Z,4.27
2018-08-12T18:56:26.419Z,3.27
2018-08-12T19:01:19.108Z,4.03
2018-08-12T19:06:11.606Z,9.30
2018-08-12T19:11:04.291Z,5.70
2018-08-12T19:15:56.915Z,5.43
2018-08-12T19:20:49.505Z,6.60
2018-08-12T19:25:42.102Z,6.87
2018-08-12T19:30:34.749Z,5.93
2018-08-12T19:35:27.411Z,5.90
2018-08-12T19:40:19.948Z,5.70
2018-08-12T19:45:12.589Z,7.43
2018-08-12T19:50:05.801Z,6.20
2018-08-12T19:54:58.316Z,4.83
2018-08-12T19:59:50.912Z,5.03
2018-08-12T20:04:43.487Z,7.00
2018-08-12T20:09:36.084Z,5.97
2018-08-12T20:14:28.691Z,6.17
2018-08-12T20:19:21.266Z,5.50
2018-08-12T20:24:13.885Z,5.27
2018-08-12T20:29:06.516Z,4.80
2018-08-12T20:33:59.218Z,4.60
2018-08-12T20:38:51.835Z,4.33
2018-08-12T20:43:44.558Z,4.10
2018-08-12T20:48:37.109Z,3.53
2018-08-12T20:53:29.690Z,4.00
2018-08-12T20:58:22.330Z,4.77
2018-08-12T21:03:15.171Z,4.80
2018-08-12T21:08:07.669Z,5.27
2018-08-12T21:13:00.250Z,4.30
2018-08-12T21:17:52.935Z,4.50
2018-08-12T21:22:45.643Z,4.63
2018-08-12T21:27:38.276Z,3.97
2018-08-12T21:32:30.841Z,4.53
2018-08-12T21:37:23.711Z,5.37
2018-08-12T21:42:16.314Z,5.03
2018-08-12T21:47:08.850Z,4.57
2018-08-12T21:52:01.427Z,4.60
2018-08-12T21:56:54.038Z,4.33
2018-08-12T22:01:46.635Z,4.90
2018-08-12T22:06:39.307Z,4.37
2018-08-12T22:11:31.850Z,5.17
2018-08-12T22:16:24.582Z,4.93
2018-08-12T22:21:17.125Z,4.77
2018-08-12T22:26:09.740Z,4.67
2018-08-12T22:31:02.393Z,5.00
2018-08-12T22:35:55.043Z,4.90
2018-08-12T22:40:47.878Z,5.20
2018-08-12T22:45:40.482Z,4.50
2018-08-12T22:50:33.076Z,4.40
2018-08-12T22:55:25.727Z,4.47
2018-08-12T23:00:19.139Z,4.93
2018-08-12T23:05:11.716Z,4.10
2018-08-12T23:10:05.396Z,4.53
2018-08-12T23:15:15.730Z,4.33
2018-08-12T23:20:08.335Z,4.60
2018-08-12T23:25:01.710Z,4.40
2018-08-12T23:29:54.269Z,4.40
2018-08-12T23:34:46.902Z,4.43
2018-08-12T23:39:39.496Z,4.47
2018-08-12T23:44:32.057Z,4.60
2018-08-12T23:49:24.665Z,4.57
2018-08-12T23:54:17.297Z,5.23
2018-08-12T23:59:09.853Z,5.07
